Buoy 52912

sailwx.info

Track history (hours):
 
Tides and Currents Weather Stations Pressure Air Temp Water Temp Dewpoint Dewpoint Depression Visibility Wind Speed Wind Dir Waves Ship Positions

Drifting buoy 52912

Last reported at 2014-Jul-23 07:00 UTC. Time now 2014-Jul-23 11:23 UTC.
Position N 08°19' E 162°28'.

Water temperature 30.0 ° C

Date/timePositionNaut miles runAvg speedWind from/ knotsBaromVisibWave heightAir tempDewpointWater temp
2014-Jul-23 07:00N 08°19' E 162°28'0 0.2 30.0
2014-Jul-23 05:00N 08°19' E 162°28'1 1.1 30.1
2014-Jul-23 04:00N 08°19' E 162°29'0 0.1 30.0
2014-Jul-23 03:00N 08°19' E 162°29'4 0.5 30.0
2014-Jul-22 20:00N 08°18' E 162°33'0 0.0 29.5
2014-Jul-22 19:00N 08°18' E 162°33'2 2.3 29.5
2014-Jul-22 18:00N 08°18' E 162°35'0 0.0 29.5
2014-Jul-22 16:00N 08°18' E 162°35'0 0.0 29.6
2014-Jul-22 15:00N 08°18' E 162°35'3 2.7 29.6
2014-Jul-22 14:00N 08°19' E 162°38'0 0.1 29.6
2014-Jul-22 11:00N 08°19' E 162°38'1 1.4 29.7
2014-Jul-22 10:00N 08°20' E 162°39'0 0.0 29.7
2014-Jul-22 09:00N 08°20' E 162°39'1 0.1 29.7
2014-Jul-22 05:00N 08°20' E 162°40'0 0.4 29.8
2014-Jul-22 04:00N 08°20' E 162°40'1 0.7 29.9
2014-Jul-22 03:00N 08°20' E 162°41'2 0.5 29.9
2014-Jul-21 23:00N 08°20' E 162°43'1 0.5 29.6
2014-Jul-21 21:00N 08°21' E 162°43'1 0.4 29.5
2014-Jul-21 18:00N 08°22' E 162°45'0 0.0 29.5
2014-Jul-21 15:00N 08°22' E 162°45'2 0.4 29.6
2014-Jul-21 10:00N 08°23' E 162°46'0 0.0 29.7
2014-Jul-21 09:00N 08°23' E 162°46'1 0.2 29.7
2014-Jul-21 03:00N 08°23' E 162°45'1 0.5 29.7
2014-Jul-21 01:00N 08°24' E 162°44'4 0.4 29.7
2014-Jul-20 16:00N 08°20' E 162°42'2 1.5 29.5
2014-Jul-20 15:00N 08°19' E 162°43'3 0.5 29.5
2014-Jul-20 10:00N 08°17' E 162°44'2 2.1 29.5
2014-Jul-20 09:00N 08°15' E 162°45'2 0.4 29.5
2014-Jul-20 04:00N 08°13' E 162°46'1 1.0 29.6
2014-Jul-20 03:00N 08°13' E 162°47'7 1.5 29.6
2014-Jul-19 22:00N 08°09' E 162°54'0 0.1 29.5
2014-Jul-19 20:00N 08°09' E 162°54'7 0.7 29.5
2014-Jul-19 11:00N 08°08' E 163°00'1 0.7 29.5
2014-Jul-19 09:00N 08°08' E 163°02'5 0.9 29.5
2014-Jul-19 03:00N 08°09' E 163°07'1 1.0 29.6
2014-Jul-19 02:00N 08°09' E 163°08'0 0.0 29.6
2014-Jul-19 01:00N 08°09' E 163°08'4 0.7 29.7
2014-Jul-18 19:00N 08°11' E 163°12'1 0.7 29.5
2014-Jul-18 17:00N 08°11' E 163°13'0 0.0 29.4
2014-Jul-18 16:00N 08°11' E 163°13'1 0.2 29.5
2014-Jul-18 11:00N 08°12' E 163°13'0 0.3 29.4
2014-Jul-18 10:00N 08°12' E 163°14'0 0.2 29.4
2014-Jul-18 09:00N 08°12' E 163°14'1 1.3 29.4
2014-Jul-18 08:00N 08°13' E 163°14'1 0.2 29.4
2014-Jul-18 03:00N 08°14' E 163°15'0 0.0 29.5
2014-Jul-18 02:00N 08°14' E 163°15'1 0.2 29.5
2014-Jul-17 23:00N 08°14' E 163°14'0 0.1 29.4
2014-Jul-17 17:00N 08°14' E 163°14'2 1.2 29.5
2014-Jul-17 15:00N 08°12' E 163°12'0 0.0 29.5
2014-Jul-17 11:00N 08°12' E 163°12'2 0.3 29.5
2014-Jul-17 04:00N 08°09' E 163°13'1 0.8 29.5
2014-Jul-17 03:00N 08°09' E 163°13'5 0.5 29.5
2014-Jul-16 17:00N 08°04' E 163°16'0 0.5 29.5
2014-Jul-16 16:00N 08°04' E 163°16'9 0.4 29.5
2014-Jul-15 16:00N 07°59' E 163°23'0 0.0 29.5
2014-Jul-15 15:00N 07°59' E 163°23'3 0.5 29.5
2014-Jul-15 10:00N 07°57' E 163°25'1 0.9 29.5
2014-Jul-15 09:00N 07°57' E 163°26'2 0.4 29.6
2014-Jul-15 05:00N 07°56' E 163°27'1 0.5 29.7
2014-Jul-15 02:00N 07°54' E 163°28'3 0.8 29.7
2014-Jul-14 22:00N 07°52' E 163°30'0 0.0 29.5
2014-Jul-14 21:00N 07°52' E 163°30'1 0.3 29.5
2014-Jul-14 19:00N 07°52' E 163°30'2 0.8 29.5
2014-Jul-14 17:00N 07°51' E 163°31'0 0.0 29.5
2014-Jul-14 16:00N 07°51' E 163°31'0 0.0 29.4
2014-Jul-14 15:00N 07°51' E 163°31'3 1.4 29.4
2014-Jul-14 13:00N 07°49' E 163°33'4 0.5 29.4
2014-Jul-14 05:00N 07°48' E 163°37'2 1.2 29.7
2014-Jul-14 03:00N 07°48' E 163°40'3 0.4 29.6
2014-Jul-13 19:00N 07°47' E 163°43'0 0.5 29.4
2014-Jul-13 18:00N 07°47' E 163°43'2 0.5 29.3
2014-Jul-13 15:00N 07°47' E 163°45'1 1.0 29.4
2014-Jul-13 14:00N 07°46' E 163°46'0 0.0 29.5
2014-Jul-13 10:00N 07°46' E 163°46'   29.4
Track history (hours):
 
Tides and Currents Weather Stations Pressure Air Temp Water Temp Dewpoint Dewpoint Depression Visibility Wind Speed Wind Dir Waves Ship Positions

Drifting buoy 52912

Last reported at 2014-Jul-23 07:00 UTC. Time now 2014-Jul-23 11:23 UTC.
Position N 08°19' E 162°28'.

Water temperature 30.0 ° C

Date/timePositionNaut miles runAvg speedWind from/ knotsBaromVisibWave heightAir tempDewpointWater temp
2014-Jul-23 07:00N 08°19' E 162°28'0 0.2 30.0
2014-Jul-23 05:00N 08°19' E 162°28'1 1.1 30.1
2014-Jul-23 04:00N 08°19' E 162°29'0 0.1 30.0
2014-Jul-23 03:00N 08°19' E 162°29'4 0.5 30.0
2014-Jul-22 20:00N 08°18' E 162°33'0 0.0 29.5
2014-Jul-22 19:00N 08°18' E 162°33'2 2.3 29.5
2014-Jul-22 18:00N 08°18' E 162°35'0 0.0 29.5
2014-Jul-22 16:00N 08°18' E 162°35'0 0.0 29.6
2014-Jul-22 15:00N 08°18' E 162°35'3 2.7 29.6
2014-Jul-22 14:00N 08°19' E 162°38'0 0.1 29.6
2014-Jul-22 11:00N 08°19' E 162°38'1 1.4 29.7
2014-Jul-22 10:00N 08°20' E 162°39'0 0.0 29.7
2014-Jul-22 09:00N 08°20' E 162°39'1 0.1 29.7
2014-Jul-22 05:00N 08°20' E 162°40'0 0.4 29.8
2014-Jul-22 04:00N 08°20' E 162°40'1 0.7 29.9
2014-Jul-22 03:00N 08°20' E 162°41'2 0.5 29.9
2014-Jul-21 23:00N 08°20' E 162°43'1 0.5 29.6
2014-Jul-21 21:00N 08°21' E 162°43'1 0.4 29.5
2014-Jul-21 18:00N 08°22' E 162°45'0 0.0 29.5
2014-Jul-21 15:00N 08°22' E 162°45'2 0.4 29.6
2014-Jul-21 10:00N 08°23' E 162°46'0 0.0 29.7
2014-Jul-21 09:00N 08°23' E 162°46'1 0.2 29.7
2014-Jul-21 03:00N 08°23' E 162°45'1 0.5 29.7
2014-Jul-21 01:00N 08°24' E 162°44'4 0.4 29.7
2014-Jul-20 16:00N 08°20' E 162°42'2 1.5 29.5
2014-Jul-20 15:00N 08°19' E 162°43'3 0.5 29.5
2014-Jul-20 10:00N 08°17' E 162°44'2 2.1 29.5
2014-Jul-20 09:00N 08°15' E 162°45'2 0.4 29.5
2014-Jul-20 04:00N 08°13' E 162°46'1 1.0 29.6
2014-Jul-20 03:00N 08°13' E 162°47'7 1.5 29.6
2014-Jul-19 22:00N 08°09' E 162°54'0 0.1 29.5
2014-Jul-19 20:00N 08°09' E 162°54'7 0.7 29.5
2014-Jul-19 11:00N 08°08' E 163°00'1 0.7 29.5
2014-Jul-19 09:00N 08°08' E 163°02'5 0.9 29.5
2014-Jul-19 03:00N 08°09' E 163°07'1 1.0 29.6
2014-Jul-19 02:00N 08°09' E 163°08'0 0.0 29.6
2014-Jul-19 01:00N 08°09' E 163°08'4 0.7 29.7
2014-Jul-18 19:00N 08°11' E 163°12'1 0.7 29.5
2014-Jul-18 17:00N 08°11' E 163°13'0 0.0 29.4
2014-Jul-18 16:00N 08°11' E 163°13'1 0.2 29.5
2014-Jul-18 11:00N 08°12' E 163°13'0 0.3 29.4
2014-Jul-18 10:00N 08°12' E 163°14'0 0.2 29.4
2014-Jul-18 09:00N 08°12' E 163°14'1 1.3 29.4
2014-Jul-18 08:00N 08°13' E 163°14'1 0.2 29.4
2014-Jul-18 03:00N 08°14' E 163°15'0 0.0 29.5
2014-Jul-18 02:00N 08°14' E 163°15'1 0.2 29.5
2014-Jul-17 23:00N 08°14' E 163°14'0 0.1 29.4
2014-Jul-17 17:00N 08°14' E 163°14'2 1.2 29.5
2014-Jul-17 15:00N 08°12' E 163°12'0 0.0 29.5
2014-Jul-17 11:00N 08°12' E 163°12'2 0.3 29.5
2014-Jul-17 04:00N 08°09' E 163°13'1 0.8 29.5
2014-Jul-17 03:00N 08°09' E 163°13'5 0.5 29.5
2014-Jul-16 17:00N 08°04' E 163°16'0 0.5 29.5
2014-Jul-16 16:00N 08°04' E 163°16'9 0.4 29.5
2014-Jul-15 16:00N 07°59' E 163°23'0 0.0 29.5
2014-Jul-15 15:00N 07°59' E 163°23'3 0.5 29.5
2014-Jul-15 10:00N 07°57' E 163°25'1 0.9 29.5
2014-Jul-15 09:00N 07°57' E 163°26'2 0.4 29.6
2014-Jul-15 05:00N 07°56' E 163°27'1 0.5 29.7
2014-Jul-15 02:00N 07°54' E 163°28'3 0.8 29.7
2014-Jul-14 22:00N 07°52' E 163°30'0 0.0 29.5
2014-Jul-14 21:00N 07°52' E 163°30'1 0.3 29.5
2014-Jul-14 19:00N 07°52' E 163°30'2 0.8 29.5
2014-Jul-14 17:00N 07°51' E 163°31'0 0.0 29.5
2014-Jul-14 16:00N 07°51' E 163°31'0 0.0 29.4
2014-Jul-14 15:00N 07°51' E 163°31'3 1.4 29.4
2014-Jul-14 13:00N 07°49' E 163°33'4 0.5 29.4
2014-Jul-14 05:00N 07°48' E 163°37'2 1.2 29.7
2014-Jul-14 03:00N 07°48' E 163°40'3 0.4 29.6
2014-Jul-13 19:00N 07°47' E 163°43'0 0.5 29.4
2014-Jul-13 18:00N 07°47' E 163°43'2 0.5 29.3
2014-Jul-13 15:00N 07°47' E 163°45'1 1.0 29.4
2014-Jul-13 14:00N 07°46' E 163°46'0 0.0 29.5
2014-Jul-13 10:00N 07°46' E 163°46'   29.4

Dump ship's entire track history